createdAt,value
2018-10-21T00:01:22.422Z,12.00
2018-10-21T00:03:50.916Z,11.30
2018-10-21T00:06:19.235Z,11.18
2018-10-21T00:08:47.544Z,11.45
2018-10-21T00:11:17.065Z,12.35
2018-10-21T00:13:45.370Z,11.20
2018-10-21T00:16:13.706Z,11.78
2018-10-21T00:18:42.009Z,14.38
2018-10-21T00:21:10.368Z,14.63
2018-10-21T00:23:39.558Z,14.10
2018-10-21T00:26:07.839Z,14.58
2018-10-21T00:28:36.158Z,12.55
2018-10-21T00:31:04.554Z,13.13
2018-10-21T00:33:32.884Z,13.83
2018-10-21T00:36:01.174Z,12.93
2018-10-21T00:38:29.484Z,14.83
2018-10-21T00:40:57.808Z,13.25
2018-10-21T00:43:26.802Z,15.30
2018-10-21T00:45:55.102Z,14.83
2018-10-21T00:48:23.476Z,15.83
2018-10-21T00:50:51.736Z,15.15
2018-10-21T00:53:20.072Z,14.00
2018-10-21T00:55:48.380Z,13.95
2018-10-21T00:58:16.718Z,12.80
2018-10-21T01:00:45.032Z,12.28
2018-10-21T01:03:13.434Z,11.33
2018-10-21T01:05:41.661Z,13.53
2018-10-21T01:08:10.625Z,13.32
2018-10-21T01:10:38.924Z,13.10
2018-10-21T01:13:07.612Z,12.75
2018-10-21T01:15:35.893Z,12.23
2018-10-21T01:18:04.258Z,13.48
2018-10-21T01:20:32.557Z,14.87
2018-10-21T01:23:00.905Z,13.15
2018-10-21T01:25:29.241Z,14.75
2018-10-21T01:27:57.542Z,11.80
2018-10-21T01:30:25.857Z,12.23
2018-10-21T01:32:54.227Z,13.32
2018-10-21T01:35:22.504Z,13.30
2018-10-21T01:37:50.907Z,13.05
2018-10-21T01:40:31.812Z,13.18
2018-10-21T01:43:00.284Z,13.98
2018-10-21T01:45:28.601Z,15.32
2018-10-21T01:47:58.360Z,13.72
2018-10-21T01:50:26.737Z,15.68
2018-10-21T01:52:56.160Z,15.13
2018-10-21T01:55:24.652Z,13.85
2018-10-21T01:57:54.101Z,14.70
2018-10-21T02:00:22.764Z,15.38
2018-10-21T02:02:51.072Z,14.78
2018-10-21T02:05:19.396Z,14.53
2018-10-21T02:07:48.613Z,14.95
2018-10-21T02:10:16.953Z,17.82
2018-10-21T02:12:45.255Z,16.82
2018-10-21T02:15:14.525Z,14.90
2018-10-21T02:17:42.910Z,15.83
2018-10-21T02:20:12.417Z,14.25
2018-10-21T02:22:41.485Z,13.60
2018-10-21T02:25:09.817Z,13.90
2018-10-21T02:27:38.885Z,13.40
2018-10-21T02:30:10.208Z,12.37
2018-10-21T02:32:38.573Z,15.18
2018-10-21T02:35:07.622Z,14.78
2018-10-21T02:37:36.313Z,13.13
2018-10-21T02:40:05.095Z,13.25
2018-10-21T02:42:33.395Z,13.08
2018-10-21T02:45:01.750Z,13.78
2018-10-21T02:47:30.062Z,12.65
2018-10-21T02:49:58.712Z,13.00
2018-10-21T02:52:27.018Z,13.95
2018-10-21T02:54:55.345Z,12.30
2018-10-21T02:57:23.677Z,14.07
2018-10-21T02:59:52.046Z,15.65
2018-10-21T03:02:20.373Z,14.07
2018-10-21T03:04:48.685Z,12.82
2018-10-21T03:07:16.977Z,13.20
2018-10-21T03:09:45.277Z,13.32
2018-10-21T03:12:13.561Z,13.30
2018-10-21T03:14:41.901Z,12.68
2018-10-21T03:17:10.197Z,16.10
2018-10-21T03:19:38.545Z,16.90
2018-10-21T03:22:06.893Z,17.45
2018-10-21T03:24:35.200Z,18.20
2018-10-21T03:27:03.534Z,18.95
2018-10-21T03:29:31.812Z,17.60
2018-10-21T03:32:00.105Z,18.87
2018-10-21T03:34:28.877Z,21.07
2018-10-21T03:36:57.212Z,19.65
2018-10-21T03:39:25.517Z,20.68
2018-10-21T03:41:53.854Z,20.50
2018-10-21T03:44:22.157Z,20.43
2018-10-21T03:46:51.181Z,21.52
2018-10-21T03:49:19.481Z,20.57
2018-10-21T03:51:47.779Z,19.55
2018-10-21T03:54:16.090Z,20.97
2018-10-21T03:56:44.454Z,22.00
2018-10-21T03:59:12.764Z,21.55
2018-10-21T04:01:41.070Z,21.62
2018-10-21T04:04:09.586Z,21.75
2018-10-21T04:06:37.860Z,22.20
2018-10-21T04:09:07.484Z,23.55
2018-10-21T04:11:35.786Z,21.37
2018-10-21T04:14:04.460Z,23.62
2018-10-21T04:16:32.751Z,21.33
2018-10-21T04:19:01.060Z,24.15
2018-10-21T04:21:29.368Z,23.00
2018-10-21T04:23:58.037Z,23.20
2018-10-21T04:26:26.440Z,22.82
2018-10-21T04:28:55.794Z,23.30
2018-10-21T04:31:24.275Z,23.20
2018-10-21T04:33:52.641Z,25.27
2018-10-21T04:36:27.413Z,23.75
2018-10-21T04:40:09.002Z,23.10
2018-10-21T04:42:37.308Z,23.15
2018-10-21T04:45:06.398Z,26.80
2018-10-21T04:47:34.789Z,25.55
2018-10-21T04:50:03.388Z,27.35
2018-10-21T04:52:32.601Z,26.37
2018-10-21T04:55:06.738Z,27.15
2018-10-21T04:57:35.806Z,28.50
2018-10-21T05:00:04.958Z,26.20
2018-10-21T05:02:33.748Z,27.50
2018-10-21T05:05:02.073Z,24.67
2018-10-21T05:07:30.469Z,26.68
2018-10-21T05:09:59.239Z,26.57
2018-10-21T05:12:27.516Z,25.88
2018-10-21T05:14:55.814Z,25.30
2018-10-21T05:17:24.112Z,24.65
2018-10-21T05:19:52.396Z,24.63
2018-10-21T05:22:20.694Z,24.20
2018-10-21T05:24:49.008Z,28.65
2018-10-21T05:27:17.336Z,26.97
2018-10-21T05:29:45.633Z,25.45
2018-10-21T05:32:14.549Z,25.57
2018-10-21T05:34:42.844Z,24.40
2018-10-21T05:37:11.148Z,24.02
2018-10-21T05:39:39.466Z,26.15
2018-10-21T05:42:07.763Z,24.15
2018-10-21T05:44:36.702Z,25.88
2018-10-21T05:47:05.362Z,23.40
2018-10-21T05:49:33.671Z,24.98
2018-10-21T05:52:02.019Z,24.80
2018-10-21T05:54:30.317Z,25.62
2018-10-21T05:56:59.571Z,25.60
2018-10-21T05:59:28.552Z,23.90
2018-10-21T06:01:56.876Z,23.80
2018-10-21T06:04:25.180Z,21.17
2018-10-21T06:06:53.452Z,20.27
2018-10-21T06:09:22.446Z,20.00
2018-10-21T06:11:50.749Z,20.37
2018-10-21T06:14:19.060Z,20.20
2018-10-21T06:16:51.708Z,19.40
2018-10-21T06:19:28.364Z,19.95
2018-10-21T06:21:56.711Z,21.27
2018-10-21T06:24:25.257Z,20.35
2018-10-21T06:26:54.257Z,20.43
2018-10-21T06:29:22.625Z,21.93
2018-10-21T06:31:50.927Z,20.68
2018-10-21T06:34:19.956Z,21.23
2018-10-21T06:36:48.342Z,20.30
2018-10-21T06:39:16.630Z,21.93
2018-10-21T06:41:44.880Z,22.15
2018-10-21T06:44:13.197Z,19.60
2018-10-21T06:46:41.496Z,19.67
2018-10-21T06:49:09.852Z,22.60
2018-10-21T06:51:38.112Z,23.05
2018-10-21T06:54:06.472Z,23.85
2018-10-21T06:56:35.062Z,23.57
2018-10-21T06:59:03.153Z,22.70
2018-10-21T07:01:31.645Z,21.85
2018-10-21T07:04:00.006Z,22.05
2018-10-21T07:06:29.048Z,24.55
2018-10-21T07:09:11.886Z,24.70
2018-10-21T07:11:40.409Z,23.92
2018-10-21T07:14:08.932Z,22.48
2018-10-21T07:16:38.284Z,23.50
2018-10-21T07:19:06.457Z,24.47
2018-10-21T07:21:34.772Z,23.18
2018-10-21T07:24:03.089Z,23.10
2018-10-21T07:26:31.510Z,23.18
2018-10-21T07:29:01.030Z,23.98
2018-10-21T07:31:29.845Z,25.43
2018-10-21T07:33:58.865Z,23.38
2018-10-21T07:36:27.382Z,23.15
2018-10-21T07:38:55.748Z,24.65
2018-10-21T07:41:25.016Z,24.07
2018-10-21T07:43:53.376Z,23.80
2018-10-21T07:46:21.732Z,22.30
2018-10-21T07:48:51.212Z,23.38
2018-10-21T07:51:19.544Z,21.95
2018-10-21T07:53:48.977Z,22.75
2018-10-21T07:56:17.764Z,25.72
2018-10-21T07:58:46.073Z,24.82
2018-10-21T08:01:15.132Z,24.65
2018-10-21T08:03:44.122Z,28.92
2018-10-21T08:06:25.542Z,27.40
2018-10-21T08:08:53.904Z,25.27
2018-10-21T08:11:23.264Z,26.27
2018-10-21T08:13:51.584Z,30.37
2018-10-21T08:16:20.749Z,25.95
2018-10-21T08:18:49.533Z,28.10
2018-10-21T08:21:17.912Z,28.25
2018-10-21T08:23:46.443Z,31.95
2018-10-21T08:26:15.049Z,28.83
2018-10-21T08:28:43.365Z,26.50
2018-10-21T08:31:11.747Z,26.50
2018-10-21T08:33:40.065Z,25.30
2018-10-21T08:36:08.593Z,27.13
2018-10-21T08:38:37.053Z,24.43
2018-10-21T08:41:05.536Z,26.75
2018-10-21T08:43:33.859Z,27.70
2018-10-21T08:46:02.551Z,23.65
2018-10-21T08:48:31.065Z,25.82
2018-10-21T08:50:59.391Z,23.73
2018-10-21T08:53:28.350Z,24.80
2018-10-21T08:55:56.713Z,26.33
2018-10-21T08:58:25.043Z,25.20
2018-10-21T09:00:53.367Z,23.67
2018-10-21T09:03:21.680Z,23.35
2018-10-21T09:05:49.981Z,24.23
2018-10-21T09:08:18.315Z,25.32
2018-10-21T09:10:46.867Z,21.00
2018-10-21T09:13:15.473Z,22.00
2018-10-21T09:15:44.862Z,22.13
2018-10-21T09:18:13.218Z,21.40
2018-10-21T09:20:41.512Z,21.77
2018-10-21T09:23:09.856Z,20.27
2018-10-21T09:25:38.173Z,20.10
2018-10-21T09:28:07.187Z,19.40
2018-10-21T09:30:35.477Z,18.75
2018-10-21T09:33:04.446Z,17.52
2018-10-21T09:35:33.914Z,17.82
2018-10-21T09:38:02.245Z,17.67
2018-10-21T09:40:31.460Z,16.90
2018-10-21T09:43:01.556Z,15.10
2018-10-21T09:45:29.933Z,14.37
2018-10-21T09:47:58.318Z,13.83
2018-10-21T09:50:27.614Z,14.33
2018-10-21T09:52:56.977Z,14.20
2018-10-21T09:55:25.397Z,14.00
2018-10-21T09:57:54.314Z,14.13
2018-10-21T10:00:27.906Z,13.07
2018-10-21T10:03:03.093Z,12.47
2018-10-21T10:05:31.456Z,12.47
2018-10-21T10:07:59.781Z,12.40
2018-10-21T10:10:28.134Z,11.80
2018-10-21T10:12:56.481Z,11.60
2018-10-21T10:15:24.873Z,11.93
2018-10-21T10:17:53.285Z,11.20
2018-10-21T10:20:21.684Z,12.67
2018-10-21T10:22:50.009Z,10.30
2018-10-21T10:25:18.441Z,10.50
2018-10-21T10:27:46.650Z,10.47
2018-10-21T10:30:15.033Z,8.57
2018-10-21T10:32:43.937Z,8.43
2018-10-21T10:35:13.145Z,9.07
2018-10-21T10:37:41.656Z,8.60
2018-10-21T10:40:11.245Z,7.47
2018-10-21T10:42:39.572Z,7.63
2018-10-21T10:45:08.445Z,7.60
2018-10-21T10:47:37.196Z,8.23
2018-10-21T10:50:06.585Z,6.93
2018-10-21T10:52:34.916Z,7.60
2018-10-21T10:55:03.308Z,7.57
2018-10-21T10:57:31.712Z,6.57
2018-10-21T11:00:00.678Z,6.20
2018-10-21T11:02:28.779Z,6.67
2018-10-21T11:04:58.069Z,7.33
2018-10-21T11:07:27.460Z,6.53
2018-10-21T11:09:55.842Z,7.03
2018-10-21T11:12:24.117Z,6.17
2018-10-21T11:14:52.424Z,7.20
2018-10-21T11:17:21.983Z,6.57
2018-10-21T11:19:51.314Z,6.80
2018-10-21T11:22:19.633Z,5.43
2018-10-21T11:24:49.349Z,6.67
2018-10-21T11:27:18.413Z,6.13
2018-10-21T11:29:47.984Z,5.60
2018-10-21T11:32:18.249Z,5.87
2018-10-21T11:34:46.645Z,5.30
2018-10-21T11:37:15.043Z,4.87
2018-10-21T11:39:43.280Z,5.30
2018-10-21T11:42:11.638Z,5.67
2018-10-21T11:44:39.990Z,6.30
2018-10-21T11:47:08.629Z,5.30
2018-10-21T11:49:36.934Z,5.13
2018-10-21T11:52:05.406Z,5.37
2018-10-21T11:54:33.710Z,4.53
2018-10-21T11:57:02.017Z,4.87
2018-10-21T11:59:30.358Z,4.93
2018-10-21T12:01:58.704Z,4.40
2018-10-21T12:04:27.012Z,3.50
2018-10-21T12:06:55.380Z,4.53
2018-10-21T12:09:23.669Z,4.03
2018-10-21T12:11:51.988Z,4.50
2018-10-21T12:14:20.277Z,3.93
2018-10-21T12:16:48.585Z,3.47
2018-10-21T12:19:17.827Z,4.13
2018-10-21T12:21:46.069Z,3.93
2018-10-21T12:24:14.408Z,3.57
2018-10-21T12:26:42.701Z,2.83
2018-10-21T12:29:11.037Z,3.37
2018-10-21T12:31:39.868Z,2.80
2018-10-21T12:34:08.435Z,3.13
2018-10-21T12:36:36.709Z,2.63
2018-10-21T12:39:08.537Z,2.90
2018-10-21T12:41:36.823Z,3.30
2018-10-21T12:44:05.628Z,2.83
2018-10-21T12:46:33.929Z,3.37
2018-10-21T12:49:02.484Z,3.53
2018-10-21T12:51:30.777Z,2.73
2018-10-21T12:53:59.644Z,3.43
2018-10-21T12:56:29.852Z,3.17
2018-10-21T12:58:58.148Z,3.43
2018-10-21T13:01:27.290Z,3.23
2018-10-21T13:03:55.614Z,3.80
2018-10-21T13:06:23.963Z,3.13
2018-10-21T13:08:52.312Z,3.60
2018-10-21T13:11:20.597Z,3.47
2018-10-21T13:13:49.031Z,3.50
2018-10-21T13:16:17.438Z,2.90
2018-10-21T13:18:45.693Z,3.10
2018-10-21T13:21:14.009Z,2.90
2018-10-21T13:23:42.488Z,3.43
2018-10-21T13:26:10.837Z,3.20
2018-10-21T13:28:39.149Z,2.60
2018-10-21T13:31:07.540Z,2.80
2018-10-21T13:33:35.801Z,3.10
2018-10-21T13:36:05.184Z,3.80
2018-10-21T13:38:34.131Z,2.60
2018-10-21T13:41:02.413Z,2.70
2018-10-21T13:43:30.719Z,2.40
2018-10-21T13:45:59.059Z,3.00
2018-10-21T13:48:27.330Z,2.27
2018-10-21T13:50:55.623Z,2.50
2018-10-21T13:53:23.983Z,2.10
2018-10-21T13:55:52.274Z,2.30
2018-10-21T13:58:20.586Z,2.27
2018-10-21T14:00:48.973Z,2.70
2018-10-21T14:03:17.230Z,2.10
2018-10-21T14:05:45.540Z,2.50
2018-10-21T14:08:13.857Z,2.10
2018-10-21T14:10:42.186Z,2.07
2018-10-21T14:13:10.525Z,1.70
2018-10-21T14:15:38.860Z,1.80
2018-10-21T14:18:07.168Z,1.90
2018-10-21T14:20:35.569Z,2.17
2018-10-21T14:23:03.903Z,1.90
2018-10-21T14:25:32.210Z,1.70
2018-10-21T14:28:00.732Z,1.53
2018-10-21T14:30:29.642Z,1.80
2018-10-21T14:32:58.003Z,2.20
2018-10-21T14:35:26.647Z,1.67
2018-10-21T14:37:55.416Z,1.80
2018-10-21T14:40:23.772Z,1.40
2018-10-21T14:42:52.214Z,1.97
2018-10-21T14:45:20.864Z,1.90
2018-10-21T14:47:49.152Z,2.10
2018-10-21T14:50:17.457Z,1.97
2018-10-21T14:52:45.765Z,1.80
2018-10-21T14:55:14.103Z,2.93
2018-10-21T14:57:42.452Z,2.40
2018-10-21T15:00:12.259Z,2.07
2018-10-21T15:02:40.456Z,1.90
2018-10-21T15:05:10.689Z,2.27
2018-10-21T15:07:39.810Z,2.23
2018-10-21T15:10:11.053Z,2.20
2018-10-21T15:12:39.475Z,3.20
2018-10-21T15:15:09.432Z,2.60
2018-10-21T15:17:37.972Z,2.07
2018-10-21T15:20:07.168Z,2.70
2018-10-21T15:22:35.437Z,1.93
2018-10-21T15:25:03.841Z,2.93
2018-10-21T15:27:32.365Z,3.27
2018-10-21T15:30:01.365Z,3.33
2018-10-21T15:32:29.716Z,3.77
2018-10-21T15:34:58.026Z,3.00
2018-10-21T15:37:26.320Z,2.37
2018-10-21T15:39:55.056Z,2.30
2018-10-21T15:42:23.349Z,2.57
2018-10-21T15:44:52.725Z,3.00
2018-10-21T15:47:21.517Z,2.60
2018-10-21T15:49:50.800Z,2.43
2018-10-21T15:52:20.367Z,2.70
2018-10-21T15:54:49.784Z,2.30
2018-10-21T15:57:18.899Z,2.30
2018-10-21T15:59:47.292Z,2.30
2018-10-21T16:02:16.657Z,2.50
2018-10-21T16:04:44.925Z,2.63
2018-10-21T16:07:13.385Z,3.10
2018-10-21T16:09:41.701Z,2.47
2018-10-21T16:12:10.693Z,3.10
2018-10-21T16:14:39.015Z,2.23
2018-10-21T16:17:07.362Z,3.17
2018-10-21T16:19:35.664Z,2.70
2018-10-21T16:22:04.003Z,3.50
2018-10-21T16:24:47.389Z,2.53
2018-10-21T16:27:16.204Z,2.90
2018-10-21T16:29:44.745Z,2.70
2018-10-21T16:32:13.669Z,2.87
2018-10-21T16:34:42.393Z,3.37
2018-10-21T16:37:10.743Z,3.83
2018-10-21T16:39:39.083Z,5.20
2018-10-21T16:42:08.026Z,5.50
2018-10-21T16:44:36.331Z,4.47
2018-10-21T16:47:04.771Z,4.80
2018-10-21T16:49:33.070Z,5.30
2018-10-21T16:52:01.361Z,4.43
2018-10-21T16:54:29.722Z,3.90
2018-10-21T16:56:58.161Z,4.87
2018-10-21T16:59:26.559Z,6.57
2018-10-21T17:01:54.822Z,5.10
2018-10-21T17:04:23.133Z,5.10
2018-10-21T17:06:51.445Z,5.43
2018-10-21T17:09:19.871Z,5.10
2018-10-21T17:11:48.091Z,6.00
2018-10-21T17:14:17.365Z,5.33
2018-10-21T17:16:46.517Z,4.93
2018-10-21T17:19:14.844Z,5.20
2018-10-21T17:21:43.164Z,5.40
2018-10-21T17:24:11.548Z,4.30
2018-10-21T17:26:39.845Z,4.10
2018-10-21T17:29:08.163Z,4.63
2018-10-21T17:31:36.455Z,4.37
2018-10-21T17:34:04.997Z,4.27
2018-10-21T17:36:33.258Z,4.20
2018-10-21T17:39:03.395Z,5.07
2018-10-21T17:41:31.726Z,10.07
2018-10-21T17:44:00.037Z,8.60
2018-10-21T17:46:28.374Z,6.57
2018-10-21T17:48:56.884Z,6.60
2018-10-21T17:51:25.125Z,5.83
2018-10-21T17:53:53.448Z,6.77
2018-10-21T17:56:21.800Z,6.80
2018-10-21T17:58:50.185Z,6.40
2018-10-21T18:01:18.524Z,6.20
2018-10-21T18:03:46.884Z,7.10
2018-10-21T18:06:15.177Z,5.83
2018-10-21T18:08:43.500Z,5.70
2018-10-21T18:11:11.887Z,5.23
2018-10-21T18:13:40.207Z,5.63
2018-10-21T18:16:08.557Z,5.13
2018-10-21T18:18:36.841Z,6.00
2018-10-21T18:21:05.332Z,6.30
2018-10-21T18:23:33.679Z,5.60
2018-10-21T18:26:02.127Z,5.23
2018-10-21T18:28:30.433Z,5.97
2018-10-21T18:30:59.447Z,5.40
2018-10-21T18:33:27.783Z,5.03
2018-10-21T18:35:57.046Z,4.97
2018-10-21T18:38:25.838Z,6.03
2018-10-21T18:40:55.596Z,5.20
2018-10-21T18:43:23.891Z,6.07
2018-10-21T18:45:53.216Z,6.33
2018-10-21T18:48:22.513Z,5.43
2018-10-21T18:50:50.840Z,5.90
2018-10-21T18:53:20.033Z,6.80
2018-10-21T18:55:48.465Z,10.63
2018-10-21T18:58:16.826Z,8.37
2018-10-21T19:00:45.139Z,8.90
2018-10-21T19:03:13.464Z,7.42
2018-10-21T19:05:47.090Z,7.35
2018-10-21T19:08:15.464Z,8.88
2018-10-21T19:10:43.856Z,8.03
2018-10-21T19:13:12.730Z,7.03
2018-10-21T19:15:41.032Z,8.50
2018-10-21T19:18:09.370Z,8.70
2018-10-21T19:20:37.680Z,7.17
2018-10-21T19:23:06.284Z,7.62
2018-10-21T19:25:34.592Z,7.65
2018-10-21T19:28:03.211Z,9.05
2018-10-21T19:30:32.294Z,8.40
2018-10-21T19:33:00.630Z,9.45
2018-10-21T19:35:28.981Z,9.18
2018-10-21T19:37:57.329Z,8.93
2018-10-21T19:40:25.646Z,8.83
2018-10-21T19:42:54.532Z,9.90
2018-10-21T19:45:22.886Z,9.63
2018-10-21T19:47:51.326Z,9.73
2018-10-21T19:50:19.697Z,9.03
2018-10-21T19:52:48.007Z,10.38
2018-10-21T19:55:16.501Z,8.95
2018-10-21T19:57:44.762Z,8.83
2018-10-21T20:00:15.289Z,8.60
2018-10-21T20:02:44.090Z,7.40
2018-10-21T20:05:13.316Z,7.80
2018-10-21T20:07:41.745Z,7.58
2018-10-21T20:10:12.389Z,8.08
2018-10-21T20:12:40.689Z,8.40
2018-10-21T20:15:10.098Z,8.65
2018-10-21T20:17:38.749Z,7.12
2018-10-21T20:20:07.703Z,6.70
2018-10-21T20:22:36.125Z,7.90
2018-10-21T20:25:05.937Z,7.28
2018-10-21T20:27:34.297Z,6.10
2018-10-21T20:30:02.847Z,7.00
2018-10-21T20:32:32.084Z,6.58
2018-10-21T20:35:00.912Z,7.08
2018-10-21T20:37:30.671Z,7.20
2018-10-21T20:39:59.567Z,6.87
2018-10-21T20:42:27.895Z,7.12
2018-10-21T20:44:57.121Z,6.42
2018-10-21T20:47:25.990Z,7.47
2018-10-21T20:49:54.433Z,6.80
2018-10-21T20:52:23.241Z,6.90
2018-10-21T20:54:51.612Z,6.60
2018-10-21T20:57:19.944Z,6.42
2018-10-21T20:59:48.618Z,6.58
2018-10-21T21:02:17.156Z,6.50
2018-10-21T21:04:46.608Z,6.90
2018-10-21T21:07:15.605Z,7.15
2018-10-21T21:09:44.132Z,8.93
2018-10-21T21:12:12.519Z,7.83
2018-10-21T21:14:40.798Z,7.50
2018-10-21T21:17:11.789Z,8.15
2018-10-21T21:19:44.981Z,9.20
2018-10-21T21:22:15.324Z,9.00
2018-10-21T21:24:43.637Z,7.47
2018-10-21T21:27:12.899Z,7.83
2018-10-21T21:29:42.178Z,8.63
2018-10-21T21:32:11.672Z,8.95
2018-10-21T21:34:41.162Z,9.33
2018-10-21T21:37:10.179Z,10.78
2018-10-21T21:39:40.390Z,9.48
2018-10-21T21:42:08.954Z,9.80
2018-10-21T21:44:37.242Z,8.10
2018-10-21T21:47:06.078Z,8.40
2018-10-21T21:49:34.473Z,9.28
2018-10-21T21:52:02.951Z,8.43
2018-10-21T21:54:31.290Z,9.58
2018-10-21T21:57:00.501Z,8.88
2018-10-21T21:59:29.670Z,9.33
2018-10-21T22:01:58.144Z,9.53
2018-10-21T22:04:26.501Z,7.65
2018-10-21T22:06:54.833Z,9.23
2018-10-21T22:09:23.709Z,9.85
2018-10-21T22:11:52.053Z,10.18
2018-10-21T22:14:20.353Z,9.13
2018-10-21T22:16:48.652Z,8.55
2018-10-21T22:19:16.944Z,8.20
2018-10-21T22:21:45.274Z,7.50
2018-10-21T22:24:13.613Z,7.95
2018-10-21T22:26:41.925Z,8.45
2018-10-21T22:29:10.366Z,9.08
2018-10-21T22:31:38.701Z,9.55
2018-10-21T22:34:07.105Z,8.10
2018-10-21T22:36:35.613Z,7.75
2018-10-21T22:39:04.916Z,7.70
2018-10-21T22:41:33.416Z,8.63
2018-10-21T22:44:01.885Z,8.63
2018-10-21T22:46:30.404Z,7.40
2018-10-21T22:48:58.773Z,8.05
2018-10-21T22:51:27.109Z,8.60
2018-10-21T22:53:55.482Z,8.70
2018-10-21T22:56:23.839Z,7.47
2018-10-21T22:58:52.235Z,9.43
2018-10-21T23:01:20.550Z,9.75
2018-10-21T23:03:49.046Z,7.62
2018-10-21T23:06:17.400Z,8.18
2018-10-21T23:08:45.650Z,8.55
2018-10-21T23:11:13.993Z,7.08
2018-10-21T23:13:42.284Z,8.28
2018-10-21T23:16:10.683Z,6.35
2018-10-21T23:18:39.023Z,7.17
2018-10-21T23:21:07.255Z,7.80
2018-10-21T23:23:35.626Z,7.58
2018-10-21T23:26:03.956Z,7.83
2018-10-21T23:28:32.289Z,7.67
2018-10-21T23:31:00.590Z,6.97
2018-10-21T23:33:28.911Z,8.65
2018-10-21T23:35:57.323Z,8.90
2018-10-21T23:38:25.649Z,7.08
2018-10-21T23:40:53.956Z,7.37
2018-10-21T23:43:22.266Z,7.45
2018-10-21T23:45:50.584Z,7.72
2018-10-21T23:48:18.972Z,7.30
2018-10-21T23:50:47.484Z,6.85
2018-10-21T23:53:15.779Z,8.78
2018-10-21T23:55:44.079Z,8.08
2018-10-21T23:58:12.455Z,8.03
